Time;durP1;ratioP1;P1;durP2;ratioP2;P2;SDS_P1;SDS_P2;PMS_P1;PMS_P2;Temp;Humidity;BMP_temperature;BMP_pressure;BME280_temperature;BME280_humidity;BME280_pressure;Samples;Min_cycle;Max_cycle;Signal;HPM_P1;HPM_P2
2022/03/06 00:02:20;;;;;;;15.50;13.90;;;;;;;0.82;59.22;98991.28;5012163;28;102608;-70
2022/03/06 00:04:48;;;;;;;13.10;11.80;;;;;;;1.24;57.92;98991.75;5014419;27;103985;-70
2022/03/06 00:07:18;;;;;;;15.52;13.93;;;;;;;1.21;57.88;98997.91;5013542;28;103968;-69
2022/03/06 00:09:46;;;;;;;14.75;13.25;;;;;;;1.29;58.33;98995.97;5013660;27;103154;-69
2022/03/06 00:12:14;;;;;;;12.65;11.35;;;;;;;1.49;57.90;98988.34;5014651;27;102799;-69
2022/03/06 00:14:42;;;;;;;17.20;15.40;;;;;;;1.32;58.12;98995.84;5014452;27;102938;-69
2022/03/06 00:17:10;;;;;;;17.30;15.37;;;;;;;1.31;57.65;98994.16;5015991;27;103813;-70
2022/03/06 00:19:39;;;;;;;15.57;13.82;;;;;;;1.07;59.36;98994.88;5011309;28;104286;-70
2022/03/06 00:22:07;;;;;;;15.23;13.70;;;;;;;1.37;58.63;98998.31;5009225;28;102826;-70
2022/03/06 00:24:36;;;;;;;17.67;15.80;;;;;;;1.13;58.21;98989.47;5018677;27;102708;-70
2022/03/06 00:27:05;;;;;;;15.38;13.77;;;;;;;1.11;59.37;98983.47;5014500;28;104300;-70
2022/03/06 00:29:33;;;;;;;17.67;15.77;;;;;;;0.75;59.17;98993.22;5019314;28;104178;-70
2022/03/06 00:32:01;;;;;;;15.52;13.85;;;;;;;0.97;59.77;98994.31;5010232;28;102614;-69
2022/03/06 00:34:32;;;;;;;15.70;14.07;;;;;;;1.21;57.74;98987.50;5015258;27;103725;-69
2022/03/06 00:37:00;;;;;;;17.10;14.93;;;;;;;0.80;60.40;98991.34;5015180;28;103635;-69
2022/03/06 00:39:29;;;;;;;14.80;13.30;;;;;;;1.25;58.17;98989.13;5018312;27;103256;-69
2022/03/06 00:41:58;;;;;;;16.85;15.05;;;;;;;0.77;60.08;98988.81;5016679;27;102797;-69
2022/03/06 00:44:32;;;;;;;15.60;14.00;;;;;;;1.14;57.98;98994.66;5014284;28;104013;-69
2022/03/06 00:47:00;;;;;;;16.88;15.07;;;;;;;1.11;58.76;98996.50;5014910;28;104830;-69
2022/03/06 00:49:28;;;;;;;13.88;12.57;;;;;;;1.39;57.75;98988.69;5016907;28;102998;-68
2022/03/06 00:51:56;;;;;;;17.00;15.20;;;;;;;1.18;57.75;98998.00;5014861;28;103037;-69
2022/03/06 00:54:24;;;;;;;17.50;15.70;;;;;;;-0.08;61.38;98998.91;5013691;28;104066;-70
2022/03/06 00:56:52;;;;;;;17.37;15.60;;;;;;;0.20;60.76;98999.03;5013551;28;103007;-70
2022/03/06 00:59:24;;;;;;;17.77;15.88;;;;;;;0.30;61.31;99008.31;5014828;28;103322;-69
2022/03/06 01:01:52;;;;;;;15.75;14.15;;;;;;;0.90;59.75;99012.75;5015165;27;102979;-69
2022/03/06 01:04:20;;;;;;;16.10;14.48;;;;;;;0.72;59.95;99008.91;5017912;28;102913;-69
2022/03/06 01:06:48;;;;;;;16.85;14.98;;;;;;;0.87;59.04;98997.22;5016651;27;103326;-69
2022/03/06 01:09:16;;;;;;;18.58;16.02;;;;;;;0.46;59.22;99001.81;5013055;28;104235;-70
2022/03/06 01:11:44;;;;;;;16.98;15.18;;;;;;;0.57;60.76;99010.19;5015703;28;102943;-70
2022/03/06 01:14:12;;;;;;;16.95;15.15;;;;;;;0.11;62.05;99004.50;5015756;28;103572;-70
2022/03/06 01:16:41;;;;;;;17.60;15.70;;;;;;;0.30;60.30;99012.66;5013085;28;104122;-70
2022/03/06 01:19:10;;;;;;;17.27;15.48;;;;;;;0.08;61.94;99009.78;5017552;28;103021;-70
2022/03/06 01:21:38;;;;;;;14.32;12.88;;;;;;;0.67;60.46;99005.59;5016879;28;102761;-70
2022/03/06 01:24:06;;;;;;;14.23;12.38;;;;;;;0.90;59.27;99008.38;5018262;28;103948;-69
2022/03/06 01:26:34;;;;;;;13.45;12.05;;;;;;;0.98;58.81;99011.59;5014191;27;103847;-70
2022/03/06 01:29:02;;;;;;;16.10;14.40;;;;;;;0.89;58.57;99011.03;5012084;28;103304;-70
2022/03/06 01:31:30;;;;;;;15.10;13.50;;;;;;;0.85;58.98;99014.59;5018550;27;102738;-69
2022/03/06 01:34:02;;;;;;;13.37;12.00;;;;;;;0.98;58.51;99015.97;5017563;28;103654;-70
2022/03/06 01:36:31;;;;;;;13.73;12.32;;;;;;;1.01;58.33;99011.50;5017441;27;103420;-69
2022/03/06 01:38:59;;;;;;;12.13;10.93;;;;;;;1.08;57.88;99007.84;5015768;28;103316;-70
2022/03/06 01:41:27;;;;;;;14.38;12.98;;;;;;;1.16;57.08;99010.22;5010891;28;102652;-68
2022/03/06 01:43:55;;;;;;;15.50;13.90;;;;;;;0.86;57.90;99005.91;5017178;28;103973;-69
2022/03/06 01:46:23;;;;;;;15.87;14.13;;;;;;;0.77;58.56;99007.03;5012956;28;103684;-70
2022/03/06 01:48:51;;;;;;;16.17;14.55;;;;;;;0.80;58.52;99006.09;5015659;27;103443;-69
2022/03/06 01:51:21;;;;;;;13.55;12.15;;;;;;;0.94;58.28;98999.59;5016813;27;102568;-70
2022/03/06 01:53:49;;;;;;;16.13;14.40;;;;;;;0.62;58.70;99001.41;5017747;28;102662;-69
2022/03/06 01:56:17;;;;;;;16.80;15.00;;;;;;;-0.22;61.53;98998.38;5017125;27;103171;-69
2022/03/06 01:58:47;;;;;;;14.27;12.77;;;;;;;0.43;60.97;98996.69;5014261;28;103176;-69
2022/03/06 02:01:15;;;;;;;16.70;14.75;;;;;;;-0.23;62.22;98990.66;5007886;28;102882;-69
2022/03/06 02:03:43;;;;;;;16.63;14.75;;;;;;;-0.19;62.06;98989.66;5015429;27;103929;-69
2022/03/06 02:06:11;;;;;;;17.00;15.20;;;;;;;-0.17;62.20;98991.34;5016759;28;103370;-70
2022/03/06 02:08:40;;;;;;;17.77;15.50;;;;;;;-0.65;63.72;98995.97;5011116;28;103158;-70
2022/03/06 02:11:10;;;;;;;15.50;13.90;;;;;;;0.09;62.13;98989.81;5009502;28;103849;-69
2022/03/06 02:13:40;;;;;;;13.98;12.52;;;;;;;0.37;61.52;98986.47;5017089;28;103696;-69
2022/03/06 02:16:08;;;;;;;13.73;12.30;;;;;;;0.49;60.52;98990.47;5016659;28;103192;-69
2022/03/06 02:18:36;;;;;;;15.47;13.57;;;;;;;0.61;59.78;98981.50;5017039;28;103451;-70
2022/03/06 02:21:09;;;;;;;15.50;13.63;;;;;;;0.58;59.60;98993.69;5010663;28;102838;-70
2022/03/06 02:23:38;;;;;;;15.73;14.13;;;;;;;0.62;59.75;98989.22;5016844;28;102722;-70
2022/03/06 02:26:09;;;;;;;14.93;13.33;;;;;;;0.47;60.17;98993.13;5015247;27;103247;-71
2022/03/06 02:28:37;;;;;;;14.50;12.63;;;;;;;0.49;59.73;98991.34;5012269;28;103347;-70
2022/03/06 02:31:06;;;;;;;17.97;15.27;;;;;;;-0.50;63.93;98991.28;5007632;28;102720;-70
2022/03/06 02:33:33;;;;;;;14.65;13.05;;;;;;;-0.27;64.64;98991.59;5017744;27;102696;-68
2022/03/06 02:36:01;;;;;;;16.33;14.63;;;;;;;-0.91;66.80;98990.50;5015913;27;104024;-68
2022/03/06 02:38:31;;;;;;;15.38;13.77;;;;;;;-0.72;66.01;98989.19;5012767;27;103382;-68
2022/03/06 02:40:59;;;;;;;16.63;14.90;;;;;;;-0.66;65.51;98990.81;5013097;28;102991;-67
2022/03/06 02:43:27;;;;;;;13.10;11.70;;;;;;;-0.01;63.29;98984.03;5009813;28;102656;-68
2022/03/06 02:45:55;;;;;;;13.90;12.40;;;;;;;0.22;62.34;98986.91;5015214;27;103267;-69
2022/03/06 02:48:24;;;;;;;14.80;13.25;;;;;;;0.38;61.54;98989.91;5012902;28;103192;-68
2022/03/06 02:50:53;;;;;;;13.30;11.70;;;;;;;0.44;60.87;98988.03;5009012;28;103223;-69
2022/03/06 02:53:23;;;;;;;15.38;13.77;;;;;;;0.42;60.95;98988.97;5013438;28;103094;-68
2022/03/06 02:55:54;;;;;;;16.70;14.80;;;;;;;0.34;61.35;98986.53;5014314;28;103239;-69
2022/03/06 02:58:22;;;;;;;15.50;13.90;;;;;;;0.31;61.20;98986.63;5015360;27;103407;-69
2022/03/06 03:00:50;;;;;;;13.80;12.30;;;;;;;0.23;62.13;98978.19;5012737;27;102868;-70
2022/03/06 03:03:18;;;;;;;15.77;14.07;;;;;;;0.37;60.83;98993.41;5013131;28;104351;-70
2022/03/06 03:05:47;;;;;;;16.73;14.15;;;;;;;0.27;61.25;98995.41;5010731;28;104319;-69
2022/03/06 03:08:18;;;;;;;13.57;12.18;;;;;;;0.32;61.39;98988.34;5014249;28;103177;-70
2022/03/06 03:10:46;;;;;;;13.48;12.07;;;;;;;0.40;60.80;99001.97;5007225;27;102737;-71
2022/03/06 03:13:15;;;;;;;14.23;12.73;;;;;;;0.46;60.54;98996.63;5014403;27;103928;-70
2022/03/06 03:15:43;;;;;;;14.70;13.18;;;;;;;-0.22;63.55;98995.78;5015628;27;103230;-70
2022/03/06 03:18:11;;;;;;;14.23;12.77;;;;;;;0.16;61.62;98996.59;5013233;27;103771;-71
2022/03/06 03:20:39;;;;;;;17.20;15.07;;;;;;;-0.67;65.28;99008.09;5010949;28;102975;-70
2022/03/06 03:23:07;;;;;;;15.93;14.32;;;;;;;-0.15;63.41;98999.97;5014754;28;102639;-70
2022/03/06 03:25:35;;;;;;;17.03;15.13;;;;;;;-0.44;63.66;99004.13;5017117;28;104164;-70
2022/03/06 03:28:03;;;;;;;17.02;15.13;;;;;;;-0.44;63.50;99004.13;5012832;28;103449;-69
2022/03/06 03:30:35;;;;;;;16.70;14.93;;;;;;;-0.19;62.74;99000.91;5013410;28;103017;-69
2022/03/06 03:33:03;;;;;;;16.42;14.35;;;;;;;-0.06;62.33;99002.31;5014898;28;103040;-70
2022/03/06 03:35:31;;;;;;;17.20;15.38;;;;;;;-0.43;63.51;99008.44;5014977;27;103775;-69
2022/03/06 03:37:59;;;;;;;14.85;13.25;;;;;;;-0.15;62.83;99002.56;5013394;28;103202;-69
2022/03/06 03:40:27;;;;;;;14.73;13.05;;;;;;;-0.01;62.33;99010.88;5015057;28;102803;-69
2022/03/06 03:42:55;;;;;;;16.50;14.10;;;;;;;0.03;62.25;99000.41;5014851;27;104138;-69
2022/03/06 03:45:23;;;;;;;15.38;13.73;;;;;;;0.07;61.61;99005.47;5011944;28;104190;-70
2022/03/06 03:47:53;;;;;;;15.82;13.85;;;;;;;0.12;61.78;99011.38;5013726;28;104355;-70
2022/03/06 03:50:20;;;;;;;16.05;14.35;;;;;;;-0.33;62.49;99007.31;5011956;28;102637;-69
2022/03/06 03:52:48;;;;;;;14.67;13.03;;;;;;;-0.31;64.50;99021.16;5015437;28;103805;-69
2022/03/06 03:55:16;;;;;;;16.05;14.38;;;;;;;-0.39;64.82;99023.06;5013522;27;103310;-69
2022/03/06 03:57:44;;;;;;;16.90;14.95;;;;;;;-0.83;66.18;99031.84;5015562;27;103215;-69
2022/03/06 04:00:13;;;;;;;16.97;15.17;;;;;;;-0.83;64.87;99039.63;5015304;27;102667;-69
2022/03/06 04:02:40;;;;;;;15.48;13.85;;;;;;;-0.44;64.77;99038.75;5016499;27;103598;-69
2022/03/06 04:05:10;;;;;;;16.27;14.57;;;;;;;-0.27;63.34;99040.94;5012490;28;103963;-68
2022/03/06 04:07:38;;;;;;;16.65;14.88;;;;;;;-0.67;65.07;99039.25;5014863;28;103193;-69
2022/03/06 04:10:06;;;;;;;16.77;14.60;;;;;;;-0.37;64.38;99044.66;5012227;28;102681;-69
2022/03/06 04:12:34;;;;;;;16.23;14.52;;;;;;;-0.31;63.93;99045.34;5015608;27;103498;-70
2022/03/06 04:15:02;;;;;;;17.42;15.52;;;;;;;-1.55;67.02;99049.72;5012395;27;103346;-69
2022/03/06 04:17:30;;;;;;;17.52;15.65;;;;;;;-0.99;67.37;99057.25;5013710;27;103186;-70
2022/03/06 04:19:58;;;;;;;16.45;14.57;;;;;;;-0.71;64.81;99048.00;5014947;27;102625;-69
2022/03/06 04:22:28;;;;;;;14.67;13.07;;;;;;;-0.65;65.54;99053.06;5011526;28;103630;-70
2022/03/06 04:24:56;;;;;;;17.45;15.52;;;;;;;-0.64;63.99;99059.94;5013431;28;103284;-70
2022/03/06 04:27:24;;;;;;;16.52;14.75;;;;;;;-0.79;65.72;99060.28;5016190;27;103186;-70
2022/03/06 04:29:52;;;;;;;17.42;15.60;;;;;;;-1.15;64.90;99061.03;5016033;27;102705;-70
2022/03/06 04:32:20;;;;;;;15.60;14.00;;;;;;;-0.94;66.26;99058.00;5011945;28;103562;-70
2022/03/06 04:34:51;;;;;;;15.85;14.10;;;;;;;-0.63;64.36;99060.81;5013068;28;104402;-70
2022/03/06 04:37:19;;;;;;;16.70;14.90;;;;;;;-0.99;64.24;99059.84;5012314;28;102979;-70
2022/03/06 04:39:48;;;;;;;17.05;15.30;;;;;;;-1.10;66.70;99067.00;5015398;28;102800;-70
2022/03/06 04:42:16;;;;;;;15.67;13.97;;;;;;;-0.82;65.84;99067.28;5013422;27;103845;-70
2022/03/06 04:44:44;;;;;;;16.75;14.75;;;;;;;-0.84;64.80;99069.91;5011616;28;104098;-70
2022/03/06 04:47:12;;;;;;;13.50;12.10;;;;;;;-0.70;65.24;99064.41;5011600;27;103255;-70
2022/03/06 04:49:41;;;;;;;15.20;13.60;;;;;;;-0.58;64.72;99064.16;5009454;28;104472;-70
2022/03/06 04:52:09;;;;;;;16.90;15.10;;;;;;;-1.13;66.29;99072.25;5010908;27;104011;-69
2022/03/06 04:54:37;;;;;;;16.27;14.57;;;;;;;-1.34;67.76;99070.03;5012984;27;103221;-69
2022/03/06 04:57:07;;;;;;;14.73;13.13;;;;;;;-0.85;66.54;99064.75;5014671;28;103256;-69
2022/03/06 04:59:34;;;;;;;14.73;13.10;;;;;;;-0.64;65.58;99066.88;5011007;28;103882;-69
2022/03/06 05:02:05;;;;;;;18.07;15.90;;;;;;;-1.49;67.76;99072.94;5012161;27;103118;-69
2022/03/06 05:04:33;;;;;;;16.50;14.75;;;;;;;-1.33;68.88;99082.13;5010513;27;103238;-69
2022/03/06 05:07:01;;;;;;;17.73;15.70;;;;;;;-1.31;67.15;99075.19;5011453;27;103440;-69
2022/03/06 05:09:29;;;;;;;16.38;14.68;;;;;;;-0.83;66.42;99073.34;5009614;27;102986;-69
2022/03/06 05:11:58;;;;;;;18.23;16.33;;;;;;;-1.20;66.40;99086.19;5014194;28;102909;-70
2022/03/06 05:14:27;;;;;;;15.85;14.25;;;;;;;-0.87;66.79;99085.53;5016086;28;104287;-69
2022/03/06 05:16:55;;;;;;;18.02;15.88;;;;;;;-1.48;66.98;99082.41;5014925;28;104162;-69
2022/03/06 05:19:23;;;;;;;16.13;14.38;;;;;;;-1.03;67.70;99086.72;5014122;28;102574;-69
2022/03/06 05:21:51;;;;;;;17.48;15.68;;;;;;;-1.80;68.96;99086.41;5015784;27;103274;-69
2022/03/06 05:24:18;;;;;;;16.20;14.18;;;;;;;-1.17;67.98;99084.41;5015553;27;103644;-69
2022/03/06 05:26:49;;;;;;;18.67;15.83;;;;;;;-2.01;71.56;99091.09;5016652;27;103241;-70
2022/03/06 05:29:17;;;;;;;14.13;12.63;;;;;;;-1.19;68.64;99086.19;5017797;27;102755;-70
2022/03/06 05:31:46;;;;;;;17.20;15.35;;;;;;;-1.42;68.89;99092.66;5014797;27;103592;-69
2022/03/06 05:34:14;;;;;;;17.00;15.07;;;;;;;-1.83;70.04;99086.50;5018820;27;103995;-69
2022/03/06 05:36:42;;;;;;;14.57;12.33;;;;;;;-1.12;67.94;99094.69;5018481;27;103203;-69
2022/03/06 05:39:10;;;;;;;17.35;15.43;;;;;;;-2.26;71.01;99100.97;5015899;27;103290;-69
2022/03/06 05:41:38;;;;;;;13.95;12.45;;;;;;;-1.57;70.74;99100.72;5013260;28;104189;-69
2022/03/06 05:44:06;;;;;;;15.30;13.35;;;;;;;-1.12;68.97;99102.44;5014987;28;104036;-70
2022/03/06 05:46:34;;;;;;;15.70;14.10;;;;;;;-1.39;69.63;99114.22;5018097;28;103039;-69
2022/03/06 05:49:12;;;;;;;15.32;13.55;;;;;;;-1.04;68.30;99104.91;5015660;27;102909;-69
2022/03/06 05:51:41;;;;;;;16.77;14.95;;;;;;;-1.57;69.77;99105.91;5017325;27;103989;-68
2022/03/06 05:54:09;;;;;;;15.50;13.90;;;;;;;-1.09;69.14;99106.72;5017001;27;104032;-68
2022/03/06 05:56:39;;;;;;;12.87;11.57;;;;;;;-0.73;66.55;99112.03;5012738;27;103050;-68
2022/03/06 05:59:10;;;;;;;19.03;14.77;;;;;;;-0.88;66.95;99107.19;5014607;28;102921;-68
2022/03/06 06:01:39;;;;;;;16.30;13.87;;;;;;;-0.80;67.14;99113.06;5030891;27;103765;-68
2022/03/06 06:04:12;;;;;;;17.95;14.75;;;;;;;-0.93;67.18;99114.19;5014323;28;104519;-69
2022/03/06 06:06:40;;;;;;;13.80;12.25;;;;;;;-0.67;67.85;99111.91;5014196;28;102989;-69
2022/03/06 06:09:08;;;;;;;17.05;14.95;;;;;;;-1.64;70.19;99117.25;5011934;28;102885;-70
2022/03/06 06:11:39;;;;;;;15.45;13.57;;;;;;;-0.98;69.43;99118.59;5017618;27;104102;-70
2022/03/06 06:14:07;;;;;;;14.70;13.18;;;;;;;-0.84;69.06;99118.34;5018827;27;103280;-70
2022/03/06 06:16:35;;;;;;;16.58;14.57;;;;;;;-0.85;67.82;99122.69;5019206;27;103328;-70
2022/03/06 06:19:04;;;;;;;13.60;12.20;;;;;;;-0.47;67.57;99108.03;5018499;28;102719;-70
2022/03/06 06:21:36;;;;;;;15.75;14.05;;;;;;;-0.42;65.78;99106.22;5016544;27;102742;-71
2022/03/06 06:24:04;;;;;;;13.70;12.30;;;;;;;-0.25;66.13;99106.66;5016691;28;104239;-70
2022/03/06 06:26:32;;;;;;;14.57;13.00;;;;;;;-0.29;65.91;99105.03;5015236;27;103241;-70
2022/03/06 06:29:00;;;;;;;18.17;16.27;;;;;;;-1.43;69.62;99112.53;5014056;27;102614;-70
2022/03/06 06:31:28;;;;;;;14.18;12.70;;;;;;;-0.77;69.14;99119.94;5015591;27;103967;-70
2022/03/06 06:33:57;;;;;;;13.82;12.43;;;;;;;-0.30;67.00;99116.31;5017282;27;103324;-69
2022/03/06 06:36:25;;;;;;;13.38;11.98;;;;;;;-0.12;65.72;99110.72;5014078;28;103327;-69
2022/03/06 06:38:55;;;;;;;16.45;14.70;;;;;;;-0.24;64.77;99108.38;5014397;28;102638;-69
2022/03/06 06:41:23;;;;;;;14.77;13.23;;;;;;;-0.36;67.49;99117.31;5008775;28;103289;-71
2022/03/06 06:43:51;;;;;;;12.93;11.63;;;;;;;0.01;65.33;99112.13;5008300;28;104160;-71
2022/03/06 06:46:19;;;;;;;13.80;12.30;;;;;;;0.23;64.50;99115.06;5007397;27;103197;-71
2022/03/06 06:48:48;;;;;;;16.15;14.40;;;;;;;0.07;64.04;99119.78;5008408;28;102990;-71
2022/03/06 06:51:16;;;;;;;15.70;14.07;;;;;;;0.26;64.89;99120.19;5005798;28;103955;-71
2022/03/06 06:53:44;;;;;;;14.43;12.93;;;;;;;0.37;64.51;99121.63;5005886;28;103854;-71
2022/03/06 06:56:13;;;;;;;16.23;14.53;;;;;;;0.45;64.22;99119.69;5004706;28;103175;-71
2022/03/06 06:58:41;;;;;;;15.35;13.85;;;;;;;0.52;63.85;99121.25;5007238;28;102770;-70
2022/03/06 07:01:09;;;;;;;15.73;14.13;;;;;;;0.53;63.92;99122.13;5003911;28;104197;-69
2022/03/06 07:03:37;;;;;;;15.67;14.00;;;;;;;0.72;63.06;99117.28;5006431;28;104218;-69
2022/03/06 07:06:05;;;;;;;14.43;12.93;;;;;;;0.89;62.78;99125.50;5007976;28;103850;-69
2022/03/06 07:08:33;;;;;;;15.30;13.70;;;;;;;0.99;62.49;99121.75;5004264;28;103470;-69
2022/03/06 07:11:01;;;;;;;16.58;14.80;;;;;;;1.00;62.82;99128.66;5005693;27;104520;-69
2022/03/06 07:13:31;;;;;;;15.85;14.23;;;;;;;1.14;62.69;99131.75;5010358;27;103372;-69
2022/03/06 07:15:59;;;;;;;15.80;14.18;;;;;;;1.23;61.89;99131.50;5011064;28;103149;-69
2022/03/06 07:18:28;;;;;;;16.50;14.32;;;;;;;1.49;61.34;99128.97;5007296;28;102618;-69
2022/03/06 07:20:56;;;;;;;16.00;14.32;;;;;;;1.47;62.32;99130.78;5013115;27;103158;-70
2022/03/06 07:23:24;;;;;;;14.98;13.48;;;;;;;1.85;61.28;99129.66;5014334;28;103267;-69
2022/03/06 07:25:52;;;;;;;16.07;14.47;;;;;;;2.05;60.58;99131.66;5016531;27;103320;-69
2022/03/06 07:28:23;;;;;;;15.60;13.85;;;;;;;2.23;59.90;99137.13;5009848;27;103503;-69
2022/03/06 07:30:53;;;;;;;14.27;12.85;;;;;;;2.50;59.97;99132.75;5015337;28;102871;-69
2022/03/06 07:33:21;;;;;;;16.10;14.40;;;;;;;2.55;59.56;99130.88;5013983;27;103300;-70
2022/03/06 07:35:49;;;;;;;16.58;14.80;;;;;;;2.49;59.91;99136.28;5008623;28;104318;-70
2022/03/06 07:38:17;;;;;;;16.13;14.48;;;;;;;2.90;59.45;99130.50;5007263;27;102882;-71
2022/03/06 07:40:45;;;;;;;15.20;13.70;;;;;;;3.19;58.55;99131.25;5012397;28;104171;-71
2022/03/06 07:43:13;;;;;;;14.95;13.35;;;;;;;3.55;57.59;99129.03;5013492;28;103314;-71
2022/03/06 07:45:42;;;;;;;16.43;14.77;;;;;;;3.27;57.73;99131.81;5011013;27;102969;-71
2022/03/06 07:48:11;;;;;;;16.65;14.95;;;;;;;2.75;58.68;99138.03;5016176;27;103086;-71
2022/03/06 07:50:39;;;;;;;16.33;14.63;;;;;;;3.30;59.14;99136.94;5018022;28;102780;-72
2022/03/06 07:53:08;;;;;;;16.58;14.98;;;;;;;3.85;56.83;99139.19;5012038;28;104172;-70
2022/03/06 07:55:36;;;;;;;16.58;14.93;;;;;;;4.26;56.17;99136.72;5011976;28;103964;-70
2022/03/06 07:58:04;;;;;;;17.30;15.50;;;;;;;2.22;60.55;99147.56;5011620;28;103450;-70
2022/03/06 08:00:35;;;;;;;16.53;14.87;;;;;;;2.32;61.80;99146.41;5015875;27;103017;-70
2022/03/06 08:03:03;;;;;;;16.95;15.15;;;;;;;2.68;62.22;99142.59;5013681;28;103847;-70
2022/03/06 08:05:33;;;;;;;15.50;14.00;;;;;;;4.20;58.93;99140.44;5009618;28;103234;-71
2022/03/06 08:08:01;;;;;;;16.30;14.70;;;;;;;3.70;58.42;99150.25;5011257;28;103079;-69
2022/03/06 08:10:29;;;;;;;16.40;14.90;;;;;;;3.65;58.79;99146.91;5011251;28;103765;-69
2022/03/06 08:12:57;;;;;;;16.13;14.63;;;;;;;4.31;56.79;99145.25;5012340;27;103296;-71
2022/03/06 08:15:26;;;;;;;17.47;15.67;;;;;;;2.70;59.80;99155.56;5006405;28;103203;-70
2022/03/06 08:17:54;;;;;;;16.70;15.00;;;;;;;3.61;60.98;99153.19;5013226;27;102712;-70
2022/03/06 08:20:22;;;;;;;16.83;15.23;;;;;;;3.24;60.32;99156.28;5012105;28;102718;-70
2022/03/06 08:22:54;;;;;;;17.17;15.48;;;;;;;2.58;61.29;99162.06;5013246;28;104112;-70
2022/03/06 08:25:22;;;;;;;17.13;15.43;;;;;;;3.88;60.03;99152.13;5016058;27;103554;-70
2022/03/06 08:27:50;;;;;;;17.02;15.43;;;;;;;3.33;60.38;99152.50;5012372;28;102602;-70
2022/03/06 08:30:18;;;;;;;16.90;15.23;;;;;;;4.35;57.05;99142.41;5009984;28;102912;-71
2022/03/06 08:32:46;;;;;;;17.00;15.30;;;;;;;3.99;57.85;99149.97;5013078;28;103945;-71
2022/03/06 08:35:17;;;;;;;16.50;14.70;;;;;;;3.71;58.96;99148.44;5015561;27;103150;-71
2022/03/06 08:37:45;;;;;;;16.70;15.10;;;;;;;4.66;56.22;99142.88;5012172;28;102693;-71
2022/03/06 08:40:17;;;;;;;17.13;15.43;;;;;;;4.42;56.92;99141.28;5014672;27;103950;-71
2022/03/06 08:42:46;;;;;;;16.23;14.63;;;;;;;4.78;55.63;99141.53;5013488;27;102917;-71
2022/03/06 08:45:14;;;;;;;17.52;15.82;;;;;;;3.80;57.61;99142.88;5010197;28;103200;-71
2022/03/06 08:47:42;;;;;;;16.10;14.53;;;;;;;5.14;56.01;99137.31;5017309;28;102887;-71
2022/03/06 08:50:12;;;;;;;16.80;15.15;;;;;;;4.89;56.39;99136.69;5018010;27;102774;-71
2022/03/06 08:52:41;;;;;;;16.27;14.68;;;;;;;4.85;55.33;99137.75;5017974;28;103206;-71
2022/03/06 08:55:10;;;;;;;16.25;14.75;;;;;;;4.66;55.47;99139.41;5016481;27;103429;-71
2022/03/06 08:57:39;;;;;;;16.73;14.98;;;;;;;4.62;54.69;99140.47;5015041;28;102694;-71
2022/03/06 09:00:08;;;;;;;16.58;14.98;;;;;;;5.97;53.47;99143.22;5016865;28;104155;-71
2022/03/06 09:02:36;;;;;;;16.83;15.18;;;;;;;4.68;54.93;99134.97;5015873;28;104088;-71
2022/03/06 09:05:05;;;;;;;16.75;15.10;;;;;;;4.85;54.94;99132.50;5014586;28;104279;-71
2022/03/06 09:07:33;;;;;;;16.70;15.10;;;;;;;5.07;53.41;99128.06;5017075;28;102675;-71
2022/03/06 09:10:01;;;;;;;16.63;15.02;;;;;;;5.15;54.15;99130.31;5018066;28;102667;-71
2022/03/06 09:12:39;;;;;;;15.40;14.00;;;;;;;6.89;51.44;99124.69;5013990;27;103239;-71
2022/03/06 09:15:11;;;;;;;16.50;14.90;;;;;;;4.66;54.12;99135.03;5013396;28;103229;-71
2022/03/06 09:17:39;;;;;;;16.17;14.63;;;;;;;5.96;53.26;99133.63;5018037;27;102898;-71
2022/03/06 09:20:08;;;;;;;16.33;14.73;;;;;;;6.50;51.02;99127.53;5016607;28;102784;-71
2022/03/06 09:22:36;;;;;;;16.17;14.68;;;;;;;6.58;50.97;99135.00;5013397;27;103247;-71
2022/03/06 09:25:05;;;;;;;15.65;14.15;;;;;;;6.45;51.29;99133.91;5016412;27;103803;-71
2022/03/06 09:27:34;;;;;;;15.02;13.68;;;;;;;7.53;49.07;99128.28;5015117;27;102836;-71
2022/03/06 09:30:05;;;;;;;14.70;13.38;;;;;;;7.84;48.01;99116.97;5015391;28;104227;-71
2022/03/06 09:32:33;;;;;;;16.25;14.68;;;;;;;7.09;48.25;99121.03;5018001;27;104063;-71
2022/03/06 09:35:01;;;;;;;15.27;13.77;;;;;;;8.02;47.74;99121.22;5015441;27;103183;-71
2022/03/06 09:37:29;;;;;;;14.50;13.20;;;;;;;8.35;47.06;99113.25;5013658;28;102794;-71
2022/03/06 09:39:57;;;;;;;14.90;13.50;;;;;;;9.03;45.55;99111.03;5015720;28;103258;-71
2022/03/06 09:42:25;;;;;;;14.77;13.43;;;;;;;8.87;45.77;99116.34;5017343;27;103437;-71
2022/03/06 09:44:53;;;;;;;15.05;13.57;;;;;;;9.11;44.97;99114.06;5018580;27;103228;-71
2022/03/06 09:47:24;;;;;;;15.45;14.00;;;;;;;9.07;44.18;99117.81;5015537;27;102770;-72
2022/03/06 09:49:52;;;;;;;15.63;14.10;;;;;;;9.47;44.46;99108.34;5018953;27;103258;-72
2022/03/06 09:52:20;;;;;;;15.83;14.43;;;;;;;9.77;44.34;99112.56;5015072;28;104039;-72
2022/03/06 09:54:48;;;;;;;15.30;13.80;;;;;;;9.80;43.44;99108.88;5014013;28;103396;-74
2022/03/06 09:57:19;;;;;;;15.15;13.75;;;;;;;9.65;42.98;99104.56;5010353;28;102885;-70
2022/03/06 09:59:47;;;;;;;15.23;13.82;;;;;;;9.50;42.77;99101.09;5016467;27;102613;-70
2022/03/06 10:02:15;;;;;;;15.77;14.07;;;;;;;10.22;42.80;99102.69;5015153;28;104082;-70
2022/03/06 10:04:47;;;;;;;15.00;13.60;;;;;;;9.29;43.33;99107.69;5011273;28;104399;-69
2022/03/06 10:07:17;;;;;;;15.60;14.13;;;;;;;8.38;42.88;99102.53;5007836;28;102679;-74
2022/03/06 10:09:48;;;;;;;14.80;13.32;;;;;;;8.06;43.19;99106.09;5008569;28;103086;-75
2022/03/06 10:12:23;;;;;;;14.70;13.30;;;;;;;6.39;46.06;99109.69;4983882;28;103995;-74
2022/03/06 10:14:52;;;;;;;15.13;13.73;;;;;;;7.25;46.15;99111.41;5004704;28;103829;-74
2022/03/06 10:17:22;;;;;;;14.93;13.52;;;;;;;6.57;46.08;99107.06;5009699;28;102870;-69
2022/03/06 10:19:58;;;;;;;14.63;13.23;;;;;;;5.60;46.54;99114.31;5006190;28;102589;-70
2022/03/06 10:22:28;;;;;;;13.73;12.43;;;;;;;6.82;44.45;99107.53;4990078;28;104013;-70
2022/03/06 10:24:58;;;;;;;13.88;12.55;;;;;;;7.09;43.04;99116.63;5008319;28;102993;-75
2022/03/06 10:27:51;;;;;;;13.27;12.05;;;;;;;6.59;43.13;99110.47;5004306;28;102658;-74
2022/03/06 10:30:23;;;;;;;13.47;12.17;;;;;;;6.88;42.86;99115.94;5002310;28;103895;-74
2022/03/06 10:32:52;;;;;;;13.35;11.95;;;;;;;6.87;42.67;99113.41;5005833;28;102739;-74
2022/03/06 10:35:37;;;;;;;13.07;11.77;;;;;;;6.51;42.46;99123.13;5010687;28;103513;-74
2022/03/06 10:38:19;;;;;;;13.43;12.02;;;;;;;5.93;42.76;99119.81;5006967;28;102838;-73
2022/03/06 10:40:48;;;;;;;13.33;11.70;;;;;;;6.35;42.89;99117.75;5007864;27;103810;-72
2022/03/06 10:43:18;;;;;;;13.03;11.83;;;;;;;7.36;41.74;99111.69;5006837;28;104244;-72
2022/03/06 10:45:46;;;;;;;13.03;11.83;;;;;;;8.13;41.37;99102.22;5007253;27;103177;-73
2022/03/06 10:48:16;;;;;;;12.85;11.70;;;;;;;7.15;41.19;99108.44;5016467;27;103045;-73
2022/03/06 10:50:46;;;;;;;14.00;12.70;;;;;;;6.13;44.29;99107.44;5005433;27;102748;-73
2022/03/06 10:53:21;;;;;;;14.38;12.98;;;;;;;5.79;45.12;99117.78;5005912;27;103202;-73
2022/03/06 10:55:50;;;;;;;13.13;11.87;;;;;;;5.75;44.94;99108.38;5009688;28;103216;-73
2022/03/06 10:58:19;;;;;;;13.18;11.88;;;;;;;6.03;44.02;99114.06;5010649;27;103021;-69
2022/03/06 11:00:48;;;;;;;12.90;11.70;;;;;;;6.20;44.22;99098.34;5005499;27;102930;-69
2022/03/06 11:03:17;;;;;;;13.00;11.80;;;;;;;6.25;43.23;99103.41;5006364;27;103139;-69
2022/03/06 11:05:47;;;;;;;12.45;11.25;;;;;;;6.10;43.43;99101.50;5008725;28;103184;-69
2022/03/06 11:08:17;;;;;;;12.75;11.55;;;;;;;6.34;42.85;99106.41;5007341;27;103166;-69
2022/03/06 11:10:45;;;;;;;11.55;10.43;;;;;;;6.08;44.27;99103.34;5002438;28;103792;-69
2022/03/06 11:13:14;;;;;;;11.73;10.63;;;;;;;5.90;43.38;99104.22;5006474;28;104145;-69
2022/03/06 11:15:43;;;;;;;11.75;10.65;;;;;;;6.57;41.97;99097.41;5007464;27;103182;-69
2022/03/06 11:18:13;;;;;;;11.63;10.52;;;;;;;5.43;43.21;99104.59;5009318;28;102864;-68
2022/03/06 11:20:44;;;;;;;11.10;10.10;;;;;;;5.81;43.03;99100.25;5005414;28;103010;-72
2022/03/06 11:23:23;;;;;;;11.75;10.60;;;;;;;5.11;44.06;99103.41;5005931;28;103258;-69